createdAt,value
2023-04-24T00:04:46.101Z,95903.94
2023-04-24T00:09:37.976Z,95910.19
2023-04-24T00:20:15.631Z,95901.63
2023-04-24T00:25:07.990Z,95910.59
2023-04-24T00:29:59.664Z,95897.69
2023-04-24T00:34:51.347Z,95899.69
2023-04-24T00:39:43.297Z,95906.53
2023-04-24T00:44:35.799Z,95898.53
2023-04-24T00:49:27.940Z,95894.84
2023-04-24T00:54:19.654Z,95895.88
2023-04-24T00:59:13.340Z,95887.44
2023-04-24T01:04:05.590Z,95884.72
2023-04-24T01:08:58.992Z,95881.84
2023-04-24T01:13:50.858Z,95878.94
2023-04-24T01:18:43.393Z,95898.75
2023-04-24T01:23:35.784Z,95906.41
2023-04-24T01:28:27.587Z,95896.13
2023-04-24T01:33:19.372Z,95898.75
2023-04-24T01:38:11.687Z,95901.09
2023-04-24T01:43:03.536Z,95896.03
2023-04-24T01:47:55.482Z,95902.81
2023-04-24T01:52:47.200Z,95897.22
2023-04-24T01:57:39.778Z,95888.75
2023-04-24T02:02:32.112Z,95895.28
2023-04-24T02:07:24.010Z,95895.75
2023-04-24T02:12:18.814Z,95905.09
2023-04-24T02:17:10.867Z,95915.81
2023-04-24T02:22:02.562Z,95906.19
2023-04-24T02:26:54.227Z,95908.38
2023-04-24T02:31:55.280Z,95911.78
2023-04-24T02:36:47.293Z,95912.59
2023-04-24T02:41:39.082Z,95920.22
2023-04-24T02:46:30.832Z,95905.72
2023-04-24T02:51:22.601Z,95904.84
2023-04-24T02:56:14.324Z,95909.53
2023-04-24T03:01:06.161Z,95901.34
2023-04-24T03:05:58.270Z,95909.06
2023-04-24T03:10:50.261Z,95895.84
2023-04-24T03:15:41.966Z,95905.47
2023-04-24T03:20:33.687Z,95901.19
2023-04-24T03:25:25.920Z,95902.41
2023-04-24T03:30:17.835Z,95896.97
2023-04-24T03:35:09.850Z,95904.19
2023-04-24T03:40:02.580Z,95918.28
2023-04-24T03:44:54.945Z,95917.25
2023-04-24T03:49:46.801Z,95918.13
2023-04-24T03:54:38.466Z,95919.53
2023-04-24T03:59:30.196Z,95915.31
2023-04-24T04:04:22.534Z,95914.28
2023-04-24T04:09:15.586Z,95918.28
2023-04-24T04:14:07.379Z,95929.56
2023-04-24T04:18:59.485Z,95921.44
2023-04-24T04:23:51.453Z,95934.25
2023-04-24T04:28:43.164Z,95935.00
2023-04-24T04:33:37.004Z,95938.25
2023-04-24T04:38:30.865Z,95939.34
2023-04-24T04:43:22.617Z,95940.22
2023-04-24T04:48:15.077Z,95948.16
2023-04-24T04:53:07.558Z,95951.28
2023-04-24T04:58:01.153Z,95952.63
2023-04-24T05:02:53.120Z,95964.88
2023-04-24T05:07:45.350Z,95995.97
2023-04-24T05:12:37.557Z,96008.28
2023-04-24T05:17:31.234Z,96005.59
2023-04-24T05:22:23.654Z,96009.72
2023-04-24T05:27:17.186Z,96014.88
2023-04-24T05:32:10.713Z,96013.69
2023-04-24T05:37:02.869Z,95999.41
2023-04-24T05:41:54.551Z,95998.44
2023-04-24T05:46:47.137Z,96015.50
2023-04-24T05:51:40.285Z,96005.28
2023-04-24T05:56:32.323Z,96013.53
2023-04-24T06:01:24.888Z,96028.41
2023-04-24T06:06:16.940Z,96047.44
2023-04-24T06:11:16.275Z,96039.47
2023-04-24T06:16:09.526Z,96046.38
2023-04-24T06:21:01.738Z,96040.22
2023-04-24T06:30:59.133Z,96062.72
2023-04-24T06:35:51.673Z,96067.75
2023-04-24T06:40:46.737Z,96074.47
2023-04-24T06:45:40.884Z,96073.97
2023-04-24T06:50:33.522Z,96075.34
2023-04-24T06:55:25.210Z,96096.53
2023-04-24T07:00:17.829Z,96078.19
2023-04-24T07:05:09.697Z,96085.72
2023-04-24T07:10:02.319Z,96093.16
2023-04-24T07:14:54.293Z,96095.81
2023-04-24T07:19:46.935Z,96099.22
2023-04-24T07:24:46.914Z,96103.59
2023-04-24T07:34:46.902Z,96120.69
2023-04-24T07:39:39.116Z,96123.09
2023-04-24T07:44:30.984Z,96130.78
2023-04-24T07:49:22.725Z,96137.13
2023-04-24T07:54:15.339Z,96136.31
2023-04-24T07:59:09.832Z,96130.13
2023-04-24T08:04:02.131Z,96139.16
2023-04-24T08:08:55.332Z,96164.38
2023-04-24T08:13:47.061Z,96161.22
2023-04-24T08:18:39.433Z,96158.03
2023-04-24T08:23:34.126Z,96173.06
2023-04-24T08:33:39.298Z,96190.75
2023-04-24T08:43:42.745Z,96199.53
2023-04-24T08:48:35.534Z,96201.38
2023-04-24T08:53:27.927Z,96201.44
2023-04-24T08:58:20.575Z,96203.84
2023-04-24T09:03:12.532Z,96208.63
2023-04-24T09:08:08.292Z,96197.13
2023-04-24T09:13:02.819Z,96206.69
2023-04-24T09:17:57.351Z,96202.53
2023-04-24T09:22:49.233Z,96211.75
2023-04-24T09:27:46.301Z,96224.66
2023-04-24T09:32:38.230Z,96226.28
2023-04-24T09:37:39.295Z,96232.88
2023-04-24T09:42:32.750Z,96220.16
2023-04-24T09:47:25.087Z,96227.41
2023-04-24T09:52:18.483Z,96220.03
2023-04-24T10:02:25.376Z,96228.91
2023-04-24T10:07:17.849Z,96233.78
2023-04-24T10:12:12.182Z,96230.13
2023-04-24T10:38:27.055Z,96257.16
2023-04-24T10:48:28.794Z,96269.03
2023-04-24T10:58:53.949Z,96270.25
2023-04-24T11:15:06.581Z,96251.28
2023-04-24T11:35:58.176Z,96275.94
2023-04-24T11:40:50.847Z,96279.25
2023-04-24T11:45:49.790Z,96284.88
2023-04-24T12:01:06.501Z,96279.31
2023-04-24T12:11:24.357Z,96291.16
2023-04-24T12:42:00.925Z,96310.13
2023-04-24T12:52:00.900Z,96284.59
2023-04-24T12:56:53.617Z,96285.91
2023-04-24T13:01:46.555Z,96275.09
2023-04-24T13:06:39.418Z,96260.34
2023-04-24T13:11:39.874Z,96272.50
2023-04-24T13:32:02.603Z,96265.09
2023-04-24T13:37:00.668Z,96273.03
2023-04-24T13:47:02.255Z,96255.59
2023-04-24T13:51:56.499Z,96247.34
2023-04-24T13:56:49.146Z,96243.84
2023-04-24T14:01:43.139Z,96233.31
2023-04-24T14:11:45.494Z,96234.16
2023-04-24T14:16:39.798Z,96233.94
2023-04-24T14:21:34.363Z,96230.75
2023-04-24T14:26:27.245Z,96237.63
2023-04-24T14:31:22.990Z,96244.16
2023-04-24T14:36:16.937Z,96240.97
2023-04-24T14:41:13.886Z,96237.09
2023-04-24T14:51:16.123Z,96234.19
2023-04-24T14:56:09.030Z,96248.69
2023-04-24T15:01:06.019Z,96241.78
2023-04-24T15:05:59.530Z,96268.72
2023-04-24T15:16:01.773Z,96268.03
2023-04-24T15:20:55.440Z,96266.91
2023-04-24T15:25:54.609Z,96277.31
2023-04-24T15:30:50.687Z,96266.56
2023-04-24T15:35:43.253Z,96261.84
2023-04-24T15:40:38.668Z,96249.22
2023-04-24T15:45:31.293Z,96264.28
2023-04-24T15:50:24.083Z,96246.31
2023-04-24T16:00:21.996Z,96246.56
2023-04-24T16:10:20.325Z,96251.72
2023-04-24T16:15:12.419Z,96251.91
2023-04-24T16:20:05.427Z,96242.94
2023-04-24T16:24:58.467Z,96250.09
2023-04-24T16:29:50.604Z,96252.47
2023-04-24T16:34:42.835Z,96256.16
2023-04-24T16:39:35.285Z,96248.78
2023-04-24T16:44:27.482Z,96257.75
2023-04-24T16:49:23.404Z,96249.63
2023-04-24T16:54:15.186Z,96264.13
2023-04-24T16:59:07.811Z,96251.66
2023-04-24T17:03:59.879Z,96252.31
2023-04-24T17:08:54.426Z,96266.69
2023-04-24T17:13:53.959Z,96265.50
2023-04-24T17:18:46.666Z,96265.97
2023-04-24T17:23:41.103Z,96258.59
2023-04-24T17:33:41.124Z,96259.50
2023-04-24T17:38:33.686Z,96266.56
2023-04-24T17:43:26.044Z,96268.50
2023-04-24T17:53:35.585Z,96274.97
2023-04-24T17:58:28.328Z,96278.53
2023-04-24T18:13:45.532Z,96283.50
2023-04-24T18:18:38.245Z,96272.81
2023-04-24T18:38:49.216Z,96305.66
2023-04-24T18:43:41.973Z,96303.28
2023-04-24T18:53:40.596Z,96322.53
2023-04-24T18:58:33.359Z,96326.81
2023-04-24T19:03:25.250Z,96332.19
2023-04-24T19:08:16.988Z,96330.69
2023-04-24T19:13:08.732Z,96327.63
2023-04-24T19:18:00.480Z,96351.63
2023-04-24T19:22:53.716Z,96360.09
2023-04-24T19:27:46.959Z,96357.13
2023-04-24T19:32:39.648Z,96355.31
2023-04-24T19:37:40.323Z,96363.56
2023-04-24T19:42:43.092Z,96367.22
2023-04-24T19:47:35.462Z,96358.91
2023-04-24T19:52:27.736Z,96367.31
2023-04-24T19:57:20.092Z,96364.69
2023-04-24T20:02:18.549Z,96362.53
2023-04-24T20:07:14.567Z,96357.28
2023-04-24T20:12:09.811Z,96357.59
2023-04-24T20:17:02.134Z,96367.88
2023-04-24T20:21:55.507Z,96369.00
2023-04-24T20:26:55.658Z,96372.88
2023-04-24T20:31:49.216Z,96369.56
2023-04-24T20:36:45.590Z,96367.53
2023-04-24T20:41:40.593Z,96361.03
2023-04-24T20:46:33.113Z,96360.34
2023-04-24T20:51:24.950Z,96365.34
2023-04-24T20:56:17.482Z,96361.81
2023-04-24T21:01:09.178Z,96358.84
2023-04-24T21:06:00.932Z,96352.41
2023-04-24T21:10:56.504Z,96354.78
2023-04-24T21:15:48.389Z,96353.59
2023-04-24T21:20:40.779Z,96344.22
2023-04-24T21:30:41.179Z,96336.88
2023-04-24T21:35:33.508Z,96333.47
2023-04-24T21:40:25.245Z,96335.28
2023-04-24T21:45:17.095Z,96320.69
2023-04-24T21:50:10.833Z,96323.31
2023-04-24T21:55:03.621Z,96322.16
2023-04-24T21:59:56.998Z,96326.53
2023-04-24T22:20:46.475Z,96314.94
2023-04-24T22:30:45.849Z,96306.59
2023-04-24T22:35:37.678Z,96294.41
2023-04-24T22:40:38.038Z,96302.81
2023-04-24T22:45:29.785Z,96290.28
2023-04-24T23:27:27.884Z,96261.63
2023-04-24T23:32:19.659Z,96257.31
2023-04-24T23:37:12.175Z,96258.09
2023-04-24T23:42:04.281Z,96246.25
2023-04-24T23:46:57.369Z,96247.72
2023-04-24T23:51:49.758Z,96249.66
2023-04-24T23:56:41.696Z,96256.66
